Time;durP1;ratioP1;P1;durP2;ratioP2;P2;SDS_P1;SDS_P2;PMS_P1;PMS_P2;Temp;Humidity;BMP_temperature;BMP_pressure;BME280_temperature;BME280_humidity;BME280_pressure;Samples;Min_cycle;Max_cycle;Signal;HPM_P1;HPM_P2
2024/02/23 00:00:35;;;;;;;4.07;1.30;;;;;;;11.94;100.00;97454.88;5070195;28;20027;-46
2024/02/23 00:03:00;;;;;;;5.28;1.10;;;;;;;11.90;100.00;97453.75;5070175;28;20021;-46
2024/02/23 00:05:29;;;;;;;4.30;1.10;;;;;;;12.08;100.00;97450.88;5070115;28;20056;-46
2024/02/23 00:07:55;;;;;;;4.15;1.00;;;;;;;12.13;100.00;97444.91;5071591;28;20024;-45
2024/02/23 00:10:20;;;;;;;3.40;0.85;;;;;;;11.99;100.00;97441.78;5071387;28;20032;-46
2024/02/23 00:12:47;;;;;;;4.43;2.97;;;;;;;11.88;100.00;97451.34;5071376;28;20398;-46
2024/02/23 00:15:13;;;;;;;3.40;1.05;;;;;;;12.01;100.00;97449.44;5071319;28;20021;-45
2024/02/23 00:17:39;;;;;;;7.05;1.63;;;;;;;12.11;100.00;97439.91;5071333;28;20112;-46
2024/02/23 00:20:11;;;;;;;3.25;1.08;;;;;;;12.25;100.00;97435.06;5071547;28;20123;-46
2024/02/23 00:22:37;;;;;;;4.38;1.40;;;;;;;12.43;100.00;97447.16;5071317;28;20430;-45
2024/02/23 00:25:03;;;;;;;2.45;0.80;;;;;;;12.59;100.00;97440.28;5071244;28;20483;-46
2024/02/23 00:27:29;;;;;;;7.15;1.40;;;;;;;12.69;100.00;97434.34;5069676;28;20080;-46
2024/02/23 00:29:54;;;;;;;2.15;0.98;;;;;;;12.81;100.00;97431.59;5069950;28;20517;-46
2024/02/23 00:32:20;;;;;;;5.22;1.10;;;;;;;12.70;100.00;97431.47;5071211;28;20103;-46
2024/02/23 00:34:46;;;;;;;5.75;1.08;;;;;;;12.46;100.00;97435.38;5073262;28;20448;-46
2024/02/23 00:37:11;;;;;;;4.63;1.00;;;;;;;12.25;100.00;97431.66;5073551;28;20055;-46
2024/02/23 00:39:37;;;;;;;1.95;1.00;;;;;;;12.16;100.00;97426.81;5073490;28;20029;-46
2024/02/23 00:42:03;;;;;;;11.32;7.95;;;;;;;12.18;100.00;97426.56;5074745;28;20107;-46
2024/02/23 00:44:29;;;;;;;5.38;4.15;;;;;;;12.32;100.00;97419.13;5073403;28;20024;-46
2024/02/23 00:46:57;;;;;;;3.58;1.23;;;;;;;12.29;100.00;97416.97;5073278;28;20039;-45
2024/02/23 00:49:23;;;;;;;3.00;0.90;;;;;;;12.22;100.00;97414.53;5074686;28;20547;-45
2024/02/23 00:51:49;;;;;;;4.03;1.00;;;;;;;12.27;100.00;97425.09;5074510;28;20112;-45
2024/02/23 00:54:15;;;;;;;3.78;0.88;;;;;;;12.43;100.00;97412.97;5074473;28;20027;-46
2024/02/23 00:56:41;;;;;;;6.70;3.38;;;;;;;12.46;100.00;97406.44;5056565;28;20490;-46
2024/02/23 00:59:06;;;;;;;5.55;1.17;;;;;;;12.38;100.00;97403.16;5074477;28;20083;-46
2024/02/23 01:01:32;;;;;;;7.05;3.22;;;;;;;12.41;100.00;97399.25;5073129;28;20029;-46
2024/02/23 01:03:58;;;;;;;4.07;0.95;;;;;;;12.33;100.00;97413.63;5073110;28;20029;-46
2024/02/23 01:06:25;;;;;;;5.95;4.45;;;;;;;12.25;100.00;97413.25;5074319;28;20033;-46
2024/02/23 01:08:50;;;;;;;3.40;1.00;;;;;;;12.21;100.00;97407.66;5074127;28;20074;-46
2024/02/23 01:11:16;;;;;;;3.85;1.40;;;;;;;11.98;100.00;97413.94;5072903;28;20028;-46
2024/02/23 01:13:42;;;;;;;4.13;1.33;;;;;;;11.84;100.00;97418.69;5074105;28;20032;-46
2024/02/23 01:16:08;;;;;;;3.80;1.30;;;;;;;11.80;100.00;97413.09;5072837;28;20032;-48
2024/02/23 01:18:34;;;;;;;4.13;1.35;;;;;;;11.80;100.00;97410.47;5074033;28;20410;-48
2024/02/23 01:21:00;;;;;;;14.38;8.23;;;;;;;11.67;100.00;97397.66;5072715;28;20020;-48
2024/02/23 01:23:26;;;;;;;60.40;54.33;;;;;;;11.68;100.00;97387.94;5073965;28;20017;-48
2024/02/23 01:25:52;;;;;;;7.05;4.63;;;;;;;11.72;100.00;97375.91;5073843;28;20482;-48
2024/02/23 01:28:17;;;;;;;6.03;1.25;;;;;;;11.73;100.00;97361.72;5072289;28;20056;-49
2024/02/23 01:30:43;;;;;;;4.22;1.00;;;;;;;11.51;100.00;97353.75;5073874;28;20052;-48
2024/02/23 01:33:09;;;;;;;7.13;1.40;;;;;;;11.20;100.00;97374.28;5072542;28;20403;-48
2024/02/23 01:35:36;;;;;;;6.50;1.50;;;;;;;10.99;100.00;97381.00;5073714;28;20040;-48
2024/02/23 01:38:02;;;;;;;4.43;1.40;;;;;;;10.84;100.00;97376.25;5073686;28;20035;-48
2024/02/23 01:40:28;;;;;;;30.25;27.20;;;;;;;10.67;100.00;97368.34;5073625;28;20569;-48
2024/02/23 01:43:04;;;;;;;9.90;4.22;;;;;;;10.70;100.00;97372.31;5073838;28;20071;-48
2024/02/23 01:45:31;;;;;;;5.00;1.35;;;;;;;10.61;100.00;97376.34;5071631;28;20048;-48
2024/02/23 01:47:57;;;;;;;7.80;1.55;;;;;;;10.51;100.00;97379.56;5073440;28;20017;-49
2024/02/23 01:50:24;;;;;;;7.22;2.13;;;;;;;10.49;100.00;97368.50;5072143;28;20406;-48
2024/02/23 01:52:52;;;;;;;55.45;50.03;;;;;;;10.37;100.00;97368.53;5073376;28;20017;-48
2024/02/23 01:55:20;;;;;;;11.10;4.00;;;;;;;10.29;100.00;97361.00;5073284;28;20066;-48
2024/02/23 01:57:47;;;;;;;6.30;2.75;;;;;;;10.20;100.00;97344.81;5073333;28;20029;-48
2024/02/23 02:00:16;;;;;;;6.70;1.70;;;;;;;10.19;100.00;97348.47;5073299;28;20103;-49
2024/02/23 02:02:44;;;;;;;3.92;2.05;;;;;;;10.21;100.00;97354.28;5071976;28;20025;-49
2024/02/23 02:05:10;;;;;;;4.13;1.35;;;;;;;10.11;100.00;97354.06;5073182;28;20024;-48
2024/02/23 02:07:36;;;;;;;4.32;1.65;;;;;;;10.01;100.00;97352.03;5071725;28;20510;-48
2024/02/23 02:10:03;;;;;;;4.75;1.25;;;;;;;9.89;100.00;97343.38;5073084;28;20025;-49
2024/02/23 02:12:29;;;;;;;9.68;2.42;;;;;;;9.86;100.00;97349.06;5072996;28;20021;-48
2024/02/23 02:14:55;;;;;;;3.28;1.10;;;;;;;9.73;100.00;97337.78;5071628;28;20028;-49
2024/02/23 02:17:21;;;;;;;4.03;1.50;;;;;;;9.63;100.00;97327.09;5072954;28;20499;-48
2024/02/23 02:19:50;;;;;;;3.83;1.15;;;;;;;9.72;100.00;97317.88;5072893;28;20021;-48
2024/02/23 02:22:16;;;;;;;7.63;2.47;;;;;;;9.72;100.00;97306.59;5072792;28;20146;-48
2024/02/23 02:24:43;;;;;;;5.43;1.30;;;;;;;9.76;100.00;97305.13;5072753;28;20108;-48
2024/02/23 02:27:09;;;;;;;3.88;1.52;;;;;;;9.82;100.00;97303.38;5072312;28;20029;-49
2024/02/23 02:29:35;;;;;;;4.53;1.40;;;;;;;9.78;100.00;97303.06;5071476;28;20039;-48
2024/02/23 02:32:02;;;;;;;63.58;50.03;;;;;;;9.80;100.00;97298.41;5072886;28;20020;-48
2024/02/23 02:34:28;;;;;;;23.90;18.17;;;;;;;9.68;100.00;97297.56;5071329;28;20031;-48
2024/02/23 02:36:54;;;;;;;16.58;8.93;;;;;;;9.68;100.00;97293.16;5072548;28;20024;-48
2024/02/23 02:39:20;;;;;;;11.52;4.38;;;;;;;9.65;100.00;97287.56;5071283;28;20402;-48
2024/02/23 02:41:48;;;;;;;8.75;4.70;;;;;;;9.52;100.00;97296.47;5072451;28;20020;-48
2024/02/23 02:44:14;;;;;;;66.28;33.33;;;;;;;9.39;100.00;97311.34;5054644;28;20440;-48
2024/02/23 02:46:41;;;;;;;19.15;13.80;;;;;;;9.27;100.00;97301.91;5071005;28;20031;-48
2024/02/23 02:49:07;;;;;;;8.00;3.90;;;;;;;9.05;100.00;97302.41;5072332;28;20387;-48
2024/02/23 02:51:32;;;;;;;22.90;20.30;;;;;;;8.81;100.00;97304.19;5071004;28;20276;-48
2024/02/23 02:53:58;;;;;;;13.23;8.40;;;;;;;8.48;100.00;97289.75;5072309;28;20038;-48
2024/02/23 02:56:24;;;;;;;10.10;4.00;;;;;;;8.12;100.00;97283.50;5070173;28;20402;-48
2024/02/23 02:58:49;;;;;;;8.82;3.60;;;;;;;8.02;100.00;97288.44;5072036;28;20115;-48
2024/02/23 03:01:15;;;;;;;4.85;1.60;;;;;;;7.99;100.00;97294.91;5070832;28;20025;-48
2024/02/23 03:03:41;;;;;;;8.13;2.42;;;;;;;7.90;100.00;97293.59;5072109;28;20111;-48
2024/02/23 03:06:06;;;;;;;8.55;2.72;;;;;;;7.72;100.00;97290.97;5070769;28;20024;-48
2024/02/23 03:08:34;;;;;;;6.45;2.58;;;;;;;7.66;100.00;97287.41;5071966;28;20024;-48
2024/02/23 03:10:59;;;;;;;5.97;2.00;;;;;;;7.70;100.00;97287.78;5070679;28;20056;-48
2024/02/23 03:13:25;;;;;;;5.13;2.58;;;;;;;7.63;100.00;97282.63;5070725;28;20532;-48
2024/02/23 03:15:51;;;;;;;8.55;2.60;;;;;;;7.43;100.00;97276.81;5072156;28;20532;-48
2024/02/23 03:18:17;;;;;;;4.30;1.85;;;;;;;7.23;100.00;97271.75;5070615;28;20029;-48
2024/02/23 03:20:42;;;;;;;8.10;1.60;;;;;;;7.20;100.00;97271.19;5070561;28;20032;-48
2024/02/23 03:23:08;;;;;;;10.15;3.88;;;;;;;7.16;100.00;97277.00;5070558;28;20033;-48
2024/02/23 03:25:34;;;;;;;8.20;2.42;;;;;;;7.18;100.00;97282.81;5070468;28;20086;-48
2024/02/23 03:28:00;;;;;;;10.77;2.60;;;;;;;7.23;100.00;97272.56;5071533;28;20387;-48
2024/02/23 03:30:26;;;;;;;6.45;1.95;;;;;;;7.08;100.00;97262.41;5071749;28;20506;-48
2024/02/23 03:32:52;;;;;;;6.82;2.53;;;;;;;6.83;100.00;97266.84;5070447;28;20054;-48
2024/02/23 03:35:17;;;;;;;7.18;2.45;;;;;;;6.75;100.00;97271.28;5071753;28;20454;-48
2024/02/23 03:37:43;;;;;;;7.22;1.90;;;;;;;6.72;100.00;97268.28;5071652;28;20045;-48
2024/02/23 03:40:10;;;;;;;7.95;1.80;;;;;;;6.75;100.00;97268.69;5071628;28;20029;-48
2024/02/23 03:42:36;;;;;;;5.50;1.92;;;;;;;6.47;100.00;97256.00;5071651;28;20025;-48
2024/02/23 03:45:02;;;;;;;7.78;1.63;;;;;;;6.27;100.00;97250.91;5070302;28;20506;-48
2024/02/23 03:47:28;;;;;;;9.23;5.65;;;;;;;6.38;100.00;97260.69;5070199;28;20070;-48
2024/02/23 03:49:54;;;;;;;6.07;2.25;;;;;;;6.55;100.00;97258.38;5070295;28;20487;-48
2024/02/23 03:52:20;;;;;;;14.23;12.23;;;;;;;6.54;100.00;97262.00;5070216;28;20017;-48
2024/02/23 03:54:46;;;;;;;8.68;5.93;;;;;;;6.96;100.00;97262.34;5071571;28;20017;-48
2024/02/23 03:57:11;;;;;;;7.20;3.58;;;;;;;7.35;100.00;97249.97;5070231;28;20024;-48
2024/02/23 03:59:37;;;;;;;6.57;3.33;;;;;;;7.79;100.00;97242.88;5071513;28;20024;-48
2024/02/23 04:02:04;;;;;;;6.90;2.28;;;;;;;7.91;100.00;97234.34;5070154;28;20499;-48
2024/02/23 04:04:29;;;;;;;5.13;1.88;;;;;;;7.41;100.00;97232.66;5070156;28;20491;-48
2024/02/23 04:06:55;;;;;;;4.03;1.75;;;;;;;7.01;100.00;97235.59;5070327;28;20021;-48
2024/02/23 04:09:21;;;;;;;5.65;1.73;;;;;;;6.69;100.00;97229.63;5074442;28;20502;-48
2024/02/23 04:11:49;;;;;;;3.97;1.80;;;;;;;6.45;100.00;97231.97;5075372;28;20434;-48
2024/02/23 04:14:15;;;;;;;18.25;15.48;;;;;;;6.39;100.00;97227.59;5074016;28;20029;-48
2024/02/23 04:16:41;;;;;;;11.93;4.18;;;;;;;6.44;100.00;97221.75;5073897;28;20086;-48
2024/02/23 04:19:07;;;;;;;6.20;2.40;;;;;;;6.43;100.00;97220.16;5075197;28;20020;-48
2024/02/23 04:21:32;;;;;;;7.60;2.03;;;;;;;6.19;100.00;97220.69;5073846;28;20094;-48
2024/02/23 04:23:58;;;;;;;5.65;1.95;;;;;;;5.88;100.00;97213.59;5075050;28;20040;-48
2024/02/23 04:26:23;;;;;;;14.23;10.77;;;;;;;5.63;100.00;97221.28;5073724;28;20082;-48
2024/02/23 04:28:49;;;;;;;7.00;2.78;;;;;;;5.70;100.00;97222.06;5074790;28;20072;-48
2024/02/23 04:31:15;;;;;;;9.38;6.43;;;;;;;5.93;100.00;97223.38;5075016;28;20047;-48
2024/02/23 04:33:41;;;;;;;8.00;3.40;;;;;;;5.79;100.00;97223.44;5073946;28;20509;-48
2024/02/23 04:36:07;;;;;;;9.23;2.20;;;;;;;5.59;100.00;97220.09;5074873;28;20574;-48
2024/02/23 04:38:34;;;;;;;14.68;8.75;;;;;;;5.43;100.00;97216.13;5074919;28;20062;-48
2024/02/23 04:41:03;;;;;;;9.07;3.00;;;;;;;5.42;100.00;97209.31;5073834;28;20391;-48
2024/02/23 04:43:28;;;;;;;9.90;7.43;;;;;;;5.55;100.00;97205.88;5074827;28;20027;-48
2024/02/23 04:45:55;;;;;;;7.53;3.25;;;;;;;5.66;100.00;97196.66;5073407;28;20473;-48
2024/02/23 04:48:21;;;;;;;9.63;2.35;;;;;;;5.74;100.00;97204.25;5074565;28;20060;-48
2024/02/23 04:50:46;;;;;;;12.32;3.75;;;;;;;6.00;100.00;97208.56;5073300;28;20044;-48
2024/02/23 04:53:12;;;;;;;10.80;7.78;;;;;;;6.11;100.00;97212.31;5074598;28;20096;-48
2024/02/23 04:55:38;;;;;;;6.68;2.30;;;;;;;5.95;100.00;97201.34;5073193;28;20116;-48
2024/02/23 04:58:04;;;;;;;9.07;2.30;;;;;;;5.67;100.00;97200.84;5074489;28;20033;-48
2024/02/23 05:00:33;;;;;;;30.98;20.98;;;;;;;5.59;100.00;97202.69;5056462;28;20021;-48
2024/02/23 05:03:00;;;;;;;8.88;2.20;;;;;;;5.53;100.00;97194.88;5074694;28;20029;-48
2024/02/23 05:05:25;;;;;;;12.63;9.50;;;;;;;5.63;100.00;97197.84;5074274;28;20032;-48
2024/02/23 05:07:51;;;;;;;77.57;67.85;;;;;;;5.63;100.00;97203.06;5072901;28;20032;-48
2024/02/23 05:10:17;;;;;;;13.63;11.10;;;;;;;5.55;100.00;97209.31;5074262;28;20028;-48
2024/02/23 05:12:44;;;;;;;15.43;12.57;;;;;;;5.53;100.00;97208.72;5072888;28;20059;-48
2024/02/23 05:15:10;;;;;;;13.90;11.88;;;;;;;5.46;100.00;97205.31;5074229;28;20028;-48
2024/02/23 05:17:35;;;;;;;21.63;19.40;;;;;;;5.38;100.00;97206.31;5072857;28;20029;-48
2024/02/23 05:20:07;;;;;;;82.07;11.23;;;;;;;5.25;100.00;97210.75;5073097;28;20025;-48
2024/02/23 05:22:32;;;;;;;47.33;10.25;;;;;;;5.24;100.00;97212.56;5074342;28;20025;-48
2024/02/23 05:24:58;;;;;;;9.32;3.50;;;;;;;5.14;100.00;97210.38;5074011;28;20517;-48
2024/02/23 05:27:24;;;;;;;6.68;2.47;;;;;;;4.87;100.00;97195.78;5073660;28;20383;-48
2024/02/23 05:29:49;;;;;;;9.07;2.67;;;;;;;4.72;100.00;97203.78;5073991;28;20510;-48
2024/02/23 05:32:15;;;;;;;10.32;2.97;;;;;;;4.77;100.00;97197.00;5072503;28;20494;-48
2024/02/23 05:34:41;;;;;;;12.07;3.75;;;;;;;4.80;100.00;97203.59;5073792;28;20089;-48
2024/02/23 05:37:08;;;;;;;7.07;4.72;;;;;;;4.76;100.00;97204.97;5074056;28;20451;-48
2024/02/23 05:39:33;;;;;;;8.05;2.55;;;;;;;4.88;100.00;97208.59;5073664;28;20029;-48
2024/02/23 05:41:59;;;;;;;6.72;2.05;;;;;;;5.03;100.00;97208.41;5072318;28;20051;-48
2024/02/23 05:44:25;;;;;;;5.57;1.80;;;;;;;5.04;100.00;97201.38;5072302;28;20032;-48
2024/02/23 05:46:51;;;;;;;9.38;2.45;;;;;;;4.99;100.00;97208.00;5073505;28;20032;-48
2024/02/23 05:49:16;;;;;;;8.55;2.10;;;;;;;5.07;100.00;97213.97;5073526;28;20035;-48
2024/02/23 05:51:45;;;;;;;10.95;3.38;;;;;;;5.06;100.00;97209.78;5072481;28;20475;-48
2024/02/23 05:54:11;;;;;;;7.65;2.55;;;;;;;5.17;100.00;97202.19;5073473;28;20460;-48
2024/02/23 05:56:37;;;;;;;9.30;2.60;;;;;;;5.32;100.00;97207.13;5073280;28;20039;-48
2024/02/23 05:59:03;;;;;;;11.57;4.25;;;;;;;5.60;100.00;97212.06;5073339;28;20025;-48
2024/02/23 06:01:29;;;;;;;5.85;2.28;;;;;;;5.66;100.00;97205.25;5072215;28;20029;-48
2024/02/23 06:03:55;;;;;;;9.32;4.38;;;;;;;5.62;100.00;97193.66;5073190;28;20029;-48
2024/02/23 06:06:20;;;;;;;8.25;2.90;;;;;;;5.34;100.00;97197.34;5073145;28;20033;-48
2024/02/23 06:08:46;;;;;;;10.23;2.42;;;;;;;5.38;100.00;97195.91;5071993;28;20479;-48
2024/02/23 06:11:12;;;;;;;9.48;2.30;;;;;;;5.56;100.00;97200.47;5071728;28;20459;-48
2024/02/23 06:13:38;;;;;;;13.05;2.95;;;;;;;5.65;100.00;97202.84;5072034;28;20032;-48
2024/02/23 06:16:05;;;;;;;13.18;8.93;;;;;;;5.75;100.00;97198.81;5071708;28;20032;-48
2024/02/23 06:18:30;;;;;;;20.55;3.25;;;;;;;5.89;100.00;97201.38;5072935;28;20032;-48
2024/02/23 06:20:56;;;;;;;6.22;2.47;;;;;;;6.00;100.00;97200.75;5054978;28;20031;-48
2024/02/23 06:23:22;;;;;;;8.73;2.22;;;;;;;6.12;100.00;97208.72;5071481;28;20056;-48
2024/02/23 06:25:48;;;;;;;13.70;7.18;;;;;;;6.13;100.00;97200.69;5071445;28;20029;-48
2024/02/23 06:28:13;;;;;;;12.02;3.85;;;;;;;6.46;100.00;97197.09;5072404;28;20456;-48
2024/02/23 06:30:39;;;;;;;10.05;5.78;;;;;;;6.67;100.00;97203.75;5071245;28;20490;-48
2024/02/23 06:33:05;;;;;;;10.80;6.38;;;;;;;6.79;100.00;97204.66;5072632;28;20074;-48
2024/02/23 06:35:32;;;;;;;5.47;2.45;;;;;;;6.99;100.00;97198.50;5072844;28;20021;-49
2024/02/23 06:37:57;;;;;;;8.32;4.13;;;;;;;6.91;100.00;97190.94;5072558;28;20024;-49
2024/02/23 06:40:23;;;;;;;9.55;3.20;;;;;;;6.64;99.62;97188.56;5071137;28;20047;-48
2024/02/23 06:42:50;;;;;;;8.52;2.30;;;;;;;6.51;100.00;97191.25;5071186;28;20043;-49
2024/02/23 06:45:16;;;;;;;7.15;3.10;;;;;;;6.67;100.00;97189.94;5072422;28;20024;-48
2024/02/23 06:47:44;;;;;;;6.55;2.00;;;;;;;7.03;100.00;97191.06;5070971;28;20035;-48
2024/02/23 06:50:10;;;;;;;8.10;3.35;;;;;;;7.35;100.00;97187.31;5071101;28;20063;-48
2024/02/23 06:52:37;;;;;;;9.93;2.92;;;;;;;7.51;100.00;97185.97;5070982;28;20101;-48
2024/02/23 06:55:03;;;;;;;12.27;3.05;;;;;;;7.26;100.00;97193.03;5072204;28;20020;-48
2024/02/23 06:57:30;;;;;;;8.73;2.72;;;;;;;6.75;97.70;97202.72;5072159;28;20078;-48
2024/02/23 06:59:56;;;;;;;8.40;2.72;;;;;;;6.31;98.69;97201.78;5072181;28;20103;-48
2024/02/23 07:02:22;;;;;;;10.68;3.15;;;;;;;6.21;100.00;97210.06;5072134;28;20095;-48
2024/02/23 07:04:47;;;;;;;7.38;2.25;;;;;;;6.53;100.00;97216.09;5072130;28;20389;-48
2024/02/23 07:07:13;;;;;;;10.65;3.75;;;;;;;7.37;100.00;97210.59;5070707;28;20016;-48
2024/02/23 07:09:39;;;;;;;5.22;1.95;;;;;;;8.62;100.00;97204.06;5070729;28;20115;-48
2024/02/23 07:12:05;;;;;;;10.10;3.38;;;;;;;9.44;100.00;97207.75;5071043;28;20032;-48
2024/02/23 07:14:31;;;;;;;10.02;2.90;;;;;;;9.71;92.12;97208.84;5072231;28;20386;-48
2024/02/23 07:16:57;;;;;;;10.50;3.05;;;;;;;9.91;86.93;97208.47;5071953;28;20504;-46
2024/02/23 07:19:22;;;;;;;7.47;4.72;;;;;;;9.92;85.27;97214.50;5071912;28;20024;-46
2024/02/23 07:21:48;;;;;;;6.20;3.65;;;;;;;10.30;91.35;97213.16;5071948;28;20090;-46
2024/02/23 07:24:14;;;;;;;12.48;3.60;;;;;;;10.94;91.45;97211.09;5070521;28;20041;-46
2024/02/23 07:26:39;;;;;;;5.65;3.13;;;;;;;11.35;85.71;97208.28;5071804;28;20363;-46
2024/02/23 07:29:07;;;;;;;6.18;2.83;;;;;;;11.17;79.44;97217.22;5071566;28;20044;-46
2024/02/23 07:31:32;;;;;;;7.18;3.60;;;;;;;10.44;78.77;97211.03;5071780;28;20029;-46
2024/02/23 07:33:58;;;;;;;6.90;3.05;;;;;;;9.41;83.31;97219.47;5070474;28;20027;-46
2024/02/23 07:36:24;;;;;;;7.43;2.95;;;;;;;8.76;89.35;97213.31;5070393;28;20028;-46
2024/02/23 07:38:50;;;;;;;10.20;3.17;;;;;;;8.52;90.02;97211.66;5071660;28;20029;-46
2024/02/23 07:41:17;;;;;;;10.18;3.30;;;;;;;8.59;90.00;97201.88;5071709;28;20031;-47
2024/02/23 07:43:44;;;;;;;10.20;3.13;;;;;;;8.91;88.47;97199.00;5071314;28;20444;-46
2024/02/23 07:46:09;;;;;;;12.27;3.65;;;;;;;8.95;87.80;97203.56;5071660;28;20024;-46
2024/02/23 07:48:36;;;;;;;8.40;3.40;;;;;;;8.95;88.16;97194.91;5070196;28;20036;-46
2024/02/23 07:51:03;;;;;;;11.95;3.15;;;;;;;9.48;87.44;97195.81;5071590;28;20024;-46
2024/02/23 07:53:29;;;;;;;7.97;3.38;;;;;;;10.08;86.13;97192.81;5071597;28;20081;-46
2024/02/23 07:55:55;;;;;;;10.10;3.78;;;;;;;10.37;84.09;97188.38;5070214;28;20028;-47
2024/02/23 07:58:21;;;;;;;10.25;3.72;;;;;;;10.50;85.11;97183.88;5070221;28;20421;-48
2024/02/23 08:00:47;;;;;;;20.52;4.03;;;;;;;10.48;86.61;97180.69;5070150;28;20025;-49
2024/02/23 08:03:13;;;;;;;16.88;6.15;;;;;;;10.76;93.72;97193.75;5071531;28;20029;-49
2024/02/23 08:05:38;;;;;;;13.30;3.75;;;;;;;11.02;89.39;97182.84;5070112;28;20060;-49
2024/02/23 08:08:06;;;;;;;11.38;4.40;;;;;;;10.83;82.90;97182.31;5070077;28;20109;-49
2024/02/23 08:10:32;;;;;;;16.40;3.95;;;;;;;10.53;83.53;97178.16;5071395;28;20043;-48
2024/02/23 08:12:59;;;;;;;15.98;3.55;;;;;;;10.46;88.53;97183.53;5071403;28;20478;-49
2024/02/23 08:15:25;;;;;;;11.82;4.03;;;;;;;10.74;90.90;97177.44;5071246;28;20029;-49
2024/02/23 08:17:51;;;;;;;8.82;3.05;;;;;;;11.56;94.45;97180.44;5053407;28;20055;-48
2024/02/23 08:20:16;;;;;;;10.38;4.18;;;;;;;12.01;93.23;97174.16;5071215;28;20025;-49
2024/02/23 08:22:42;;;;;;;11.18;6.75;;;;;;;12.41;94.76;97165.09;5071311;28;20056;-49
2024/02/23 08:25:08;;;;;;;8.38;2.92;;;;;;;13.20;94.59;97168.88;5069786;28;20554;-49
2024/02/23 08:27:34;;;;;;;9.05;3.08;;;;;;;13.82;91.12;97166.53;5070865;28;20080;-49
2024/02/23 08:30:00;;;;;;;7.68;2.85;;;;;;;13.49;84.83;97169.28;5071312;28;20058;-49
2024/02/23 08:32:25;;;;;;;7.85;3.78;;;;;;;13.19;91.32;97164.63;5071193;28;20052;-47
2024/02/23 08:34:52;;;;;;;7.70;4.03;;;;;;;12.94;94.74;97171.31;5069867;28;20066;-48
2024/02/23 08:37:19;;;;;;;6.75;3.38;;;;;;;12.84;97.89;97168.63;5071112;28;20502;-49
2024/02/23 08:39:44;;;;;;;11.30;4.60;;;;;;;12.74;97.04;97166.69;5071100;28;20056;-49
2024/02/23 08:42:10;;;;;;;10.35;4.43;;;;;;;13.36;99.25;97164.47;5069712;28;20457;-49
2024/02/23 08:44:39;;;;;;;8.13;4.70;;;;;;;13.83;93.86;97160.22;5069734;28;20077;-49
2024/02/23 08:47:05;;;;;;;8.07;5.20;;;;;;;13.54;90.54;97156.16;5069635;28;20023;-48
2024/02/23 08:49:31;;;;;;;9.10;4.07;;;;;;;13.72;92.28;97154.91;5069710;28;20372;-49
2024/02/23 08:51:58;;;;;;;11.00;4.13;;;;;;;14.10;92.32;97160.81;5071003;28;20031;-49
2024/02/23 08:54:24;;;;;;;15.95;8.73;;;;;;;14.64;92.77;97156.94;5070972;28;20466;-49
2024/02/23 08:56:50;;;;;;;8.63;4.43;;;;;;;14.88;94.64;97159.06;5074370;28;20048;-49
2024/02/23 08:59:15;;;;;;;10.27;4.47;;;;;;;15.24;95.11;97153.72;5074456;28;20390;-49
2024/02/23 09:01:41;;;;;;;17.75;4.40;;;;;;;15.89;93.91;97143.19;5073083;28;20029;-49
2024/02/23 09:04:07;;;;;;;11.07;7.30;;;;;;;16.81;94.15;97144.44;5074433;28;20017;-47
2024/02/23 09:06:33;;;;;;;15.68;4.63;;;;;;;17.56;92.24;97133.34;5074342;28;20028;-45
2024/02/23 09:08:59;;;;;;;12.10;4.07;;;;;;;17.48;86.79;97131.31;5074295;28;20104;-45
2024/02/23 09:11:24;;;;;;;15.18;6.95;;;;;;;17.23;87.43;97121.81;5074253;28;20028;-47
2024/02/23 09:13:50;;;;;;;14.88;6.50;;;;;;;17.00;88.66;97126.00;5072915;28;20040;-47
2024/02/23 09:16:18;;;;;;;31.58;7.07;;;;;;;16.81;81.51;97125.88;5074200;28;20016;-47
2024/02/23 09:18:44;;;;;;;20.67;6.57;;;;;;;17.23;82.51;97114.63;5074120;28;20108;-45
2024/02/23 09:21:10;;;;;;;38.75;9.07;;;;;;;18.19;82.52;97115.56;5074010;28;20447;-45
2024/02/23 09:23:36;;;;;;;20.63;6.10;;;;;;;19.58;79.77;97106.78;5072720;28;20024;-45
2024/02/23 09:26:01;;;;;;;13.70;4.28;;;;;;;20.12;74.61;97105.13;5074021;28;20485;-45
2024/02/23 09:28:30;;;;;;;13.88;4.22;;;;;;;20.58;74.65;97102.44;5072363;28;20044;-46
2024/02/23 09:30:56;;;;;;;14.18;4.00;;;;;;;21.17;72.11;97095.09;5073944;28;20021;-46
2024/02/23 09:33:21;;;;;;;22.10;5.45;;;;;;;21.09;73.11;97087.84;5073904;28;20028;-45
2024/02/23 09:35:47;;;;;;;15.15;4.00;;;;;;;20.68;67.71;97091.56;5073861;28;20086;-46
2024/02/23 09:38:13;;;;;;;11.43;3.47;;;;;;;21.39;65.41;97086.22;5073877;28;20024;-45
2024/02/23 09:40:39;;;;;;;7.72;3.20;;;;;;;21.60;66.69;97086.44;5073746;28;20502;-46
2024/02/23 09:43:08;;;;;;;12.45;4.90;;;;;;;20.93;71.39;97093.59;5073718;28;20028;-46
2024/02/23 09:45:33;;;;;;;12.07;3.85;;;;;;;22.48;68.67;97088.06;5073622;28;20056;-47
2024/02/23 09:48:03;;;;;;;12.15;3.20;;;;;;;24.05;64.88;97076.66;5073442;28;20052;-47
2024/02/23 09:50:30;;;;;;;10.75;3.50;;;;;;;24.96;62.36;97084.00;5072434;28;20029;-47
2024/02/23 09:52:58;;;;;;;9.00;2.92;;;;;;;25.58;61.10;97074.06;5072190;28;20081;-48
2024/02/23 09:55:24;;;;;;;8.93;2.40;;;;;;;26.50;59.71;97074.31;5073373;28;20082;-47
2024/02/23 09:57:56;;;;;;;10.43;2.58;;;;;;;26.88;56.44;97071.13;5073381;28;20040;-48
2024/02/23 10:00:23;;;;;;;10.27;2.78;;;;;;;26.27;50.65;97066.03;5072231;28;20444;-48
2024/02/23 10:02:49;;;;;;;8.35;2.35;;;;;;;26.63;53.71;97072.41;5073309;28;20020;-48
2024/02/23 10:05:17;;;;;;;6.32;2.22;;;;;;;27.22;50.70;97071.53;5072999;28;20025;-48
2024/02/23 10:07:44;;;;;;;4.97;1.23;;;;;;;26.53;38.64;97067.50;5071544;28;20085;-48
2024/02/23 10:10:11;;;;;;;3.83;1.25;;;;;;;26.14;44.17;97064.53;5071847;28;20052;-46
2024/02/23 10:12:37;;;;;;;3.55;1.13;;;;;;;26.17;42.73;97061.16;5073048;28;20096;-46
2024/02/23 10:15:04;;;;;;;4.22;1.50;;;;;;;26.33;45.81;97048.53;5073322;28;20021;-46
2024/02/23 10:17:31;;;;;;;3.85;1.33;;;;;;;26.20;40.09;97057.78;5073274;28;20028;-48
2024/02/23 10:20:04;;;;;;;5.20;1.75;;;;;;;25.79;38.67;97057.78;5072875;28;20020;-47
2024/02/23 10:22:31;;;;;;;6.03;1.70;;;;;;;25.35;39.65;97056.84;5071628;28;20032;-48
2024/02/23 10:24:57;;;;;;;3.65;2.05;;;;;;;25.39;43.21;97050.44;5072886;28;20024;-48
2024/02/23 10:27:23;;;;;;;16.67;10.02;;;;;;;25.24;37.98;97053.84;5072456;28;20051;-48
2024/02/23 10:29:50;;;;;;;34.00;20.27;;;;;;;24.92;38.41;97054.34;5072776;28;20048;-48
2024/02/23 10:32:20;;;;;;;21.05;18.83;;;;;;;24.58;36.92;97055.53;5071308;28;20017;-48
2024/02/23 10:34:49;;;;;;;47.83;39.55;;;;;;;23.99;34.03;97059.22;5072551;28;20104;-48
2024/02/23 10:37:15;;;;;;;14.95;7.50;;;;;;;23.46;33.52;97061.44;5072551;28;20024;-47
2024/02/23 10:39:42;;;;;;;22.90;11.93;;;;;;;23.16;34.82;97060.66;5072582;28;20162;-48
2024/02/23 10:42:10;;;;;;;10.45;7.78;;;;;;;23.09;35.39;97065.72;5072540;28;20012;-48
2024/02/23 10:44:37;;;;;;;11.45;6.35;;;;;;;22.67;36.63;97068.19;5072474;28;20035;-46
2024/02/23 10:47:04;;;;;;;3.65;1.60;;;;;;;22.67;36.32;97049.47;5072319;28;20091;-46
2024/02/23 10:49:31;;;;;;;10.35;2.00;;;;;;;22.26;38.01;97059.63;5071095;28;20119;-46
2024/02/23 10:51:57;;;;;;;6.38;1.10;;;;;;;22.43;34.87;97055.38;5072332;28;20028;-46
2024/02/23 10:54:23;;;;;;;5.32;1.20;;;;;;;23.08;32.58;97048.91;5070972;28;20024;-46
2024/02/23 10:56:51;;;;;;;5.22;1.52;;;;;;;23.76;34.76;97041.84;5070925;28;20028;-46
2024/02/23 10:59:18;;;;;;;3.45;1.10;;;;;;;24.03;28.73;97035.22;5072292;28;20070;-46
2024/02/23 11:01:49;;;;;;;2.72;1.00;;;;;;;24.04;28.77;97034.88;5072195;28;20402;-46
2024/02/23 11:04:18;;;;;;;3.53;1.75;;;;;;;24.09;26.06;97031.22;5072144;28;20417;-46
2024/02/23 11:06:51;;;;;;;7.28;4.80;;;;;;;24.23;26.65;97033.63;5072392;28;20135;-46
2024/02/23 11:09:21;;;;;;;9.93;3.38;;;;;;;24.51;27.96;97037.31;5070678;28;20027;-46
2024/02/23 11:11:57;;;;;;;6.35;1.63;;;;;;;24.54;26.51;97027.03;5070705;28;20048;-47
2024/02/23 11:14:36;;;;;;;12.88;4.20;;;;;;;23.97;27.47;97026.59;5070874;28;20056;-46
2024/02/23 11:17:03;;;;;;;7.68;2.05;;;;;;;23.25;28.55;97025.81;5071768;28;20051;-46
2024/02/23 11:19:40;;;;;;;3.17;0.93;;;;;;;22.09;26.03;97030.22;5071466;28;20025;-46
2024/02/23 11:22:09;;;;;;;4.65;1.25;;;;;;;20.74;29.05;97021.84;5072103;28;20036;-48
2024/02/23 11:24:46;;;;;;;4.90;1.13;;;;;;;19.60;30.37;97042.59;5071824;28;20056;-47